createdAt,value
2023-06-09T00:01:03.066Z,8.20
2023-06-09T00:03:34.972Z,8.43
2023-06-09T00:06:10.388Z,7.25
2023-06-09T00:08:42.220Z,6.50
2023-06-09T00:11:14.107Z,9.05
2023-06-09T00:13:46.669Z,8.38
2023-06-09T00:16:18.478Z,8.88
2023-06-09T00:18:50.278Z,8.57
2023-06-09T00:21:22.758Z,9.23
2023-06-09T00:23:57.252Z,7.72
2023-06-09T00:26:29.173Z,12.70
2023-06-09T00:29:01.355Z,8.73
2023-06-09T00:31:33.179Z,9.32
2023-06-09T00:34:04.974Z,9.00
2023-06-09T00:36:37.470Z,7.32
2023-06-09T00:39:10.468Z,8.90
2023-06-09T00:41:43.235Z,7.63
2023-06-09T00:44:16.099Z,9.02
2023-06-09T00:46:48.007Z,9.55
2023-06-09T00:49:19.898Z,9.57
2023-06-09T00:51:52.540Z,8.85
2023-06-09T00:54:24.431Z,9.73
2023-06-09T00:56:57.672Z,7.07
2023-06-09T00:59:29.781Z,8.57
2023-06-09T01:02:02.009Z,7.45
2023-06-09T01:04:36.214Z,8.70
2023-06-09T01:07:12.625Z,7.25
2023-06-09T01:09:50.851Z,11.63
2023-06-09T01:12:51.937Z,8.88
2023-06-09T01:15:30.885Z,10.02
2023-06-09T01:18:05.206Z,9.95
2023-06-09T01:20:47.173Z,8.27
2023-06-09T01:23:33.433Z,7.95
2023-06-09T01:26:06.827Z,10.05
2023-06-09T01:28:39.794Z,8.95
2023-06-09T01:31:16.419Z,9.15
2023-06-09T01:33:48.574Z,10.85
2023-06-09T01:36:21.162Z,9.43
2023-06-09T01:38:53.092Z,9.95
2023-06-09T01:41:26.744Z,10.18
2023-06-09T01:43:59.175Z,11.50
2023-06-09T01:46:31.212Z,10.35
2023-06-09T01:49:28.477Z,9.75
2023-06-09T01:52:22.129Z,11.98
2023-06-09T01:54:58.591Z,11.40
2023-06-09T01:57:59.602Z,11.52
2023-06-09T02:03:06.953Z,11.20
2023-06-09T02:05:40.223Z,9.13
2023-06-09T02:08:12.601Z,11.20
2023-06-09T02:10:44.494Z,11.68
2023-06-09T02:13:18.224Z,10.57
2023-06-09T02:15:50.300Z,10.35
2023-06-09T02:18:22.892Z,9.98
2023-06-09T02:20:54.869Z,9.25
2023-06-09T02:23:26.882Z,10.05
2023-06-09T02:25:58.652Z,13.73
2023-06-09T02:28:30.442Z,9.63
2023-06-09T02:31:02.721Z,11.40
2023-06-09T02:33:34.861Z,10.52
2023-06-09T02:36:06.654Z,13.48
2023-06-09T02:38:38.696Z,12.30
2023-06-09T02:41:10.600Z,11.15
2023-06-09T02:43:42.493Z,11.18
2023-06-09T02:46:15.198Z,14.30
2023-06-09T02:48:48.938Z,15.23
2023-06-09T02:51:21.049Z,11.05
2023-06-09T02:53:52.838Z,14.23
2023-06-09T02:56:24.864Z,12.00
2023-06-09T02:58:56.632Z,10.40
2023-06-09T03:01:29.363Z,9.40
2023-06-09T03:04:01.395Z,10.38
2023-06-09T03:06:37.874Z,9.18
2023-06-09T03:09:12.215Z,10.25
2023-06-09T03:11:44.211Z,8.85
2023-06-09T03:14:16.197Z,10.50
2023-06-09T03:16:48.214Z,12.60
2023-06-09T03:19:20.102Z,10.43
2023-06-09T03:21:53.845Z,13.52
2023-06-09T03:24:26.496Z,14.15
2023-06-09T03:26:58.305Z,10.43
2023-06-09T03:29:30.317Z,11.30
2023-06-09T03:32:02.202Z,11.65
2023-06-09T03:34:33.987Z,11.23
2023-06-09T03:37:05.979Z,11.80
2023-06-09T03:39:37.908Z,11.75
2023-06-09T03:42:09.798Z,13.63
2023-06-09T03:44:41.664Z,11.77
2023-06-09T03:47:13.474Z,12.27
2023-06-09T03:49:45.262Z,10.60
2023-06-09T03:52:17.224Z,10.45
2023-06-09T03:54:49.795Z,12.10
2023-06-09T03:57:21.909Z,15.60
2023-06-09T03:59:53.733Z,14.38
2023-06-09T04:02:25.657Z,12.13
2023-06-09T04:04:57.553Z,13.52
2023-06-09T04:07:31.476Z,12.18
2023-06-09T04:10:04.326Z,9.30
2023-06-09T04:12:36.544Z,9.10
2023-06-09T04:15:09.466Z,12.85
2023-06-09T04:17:41.644Z,12.07
2023-06-09T04:20:13.793Z,10.23
2023-06-09T04:22:49.643Z,14.23
2023-06-09T04:25:27.486Z,11.52
2023-06-09T04:28:01.806Z,9.93
2023-06-09T04:30:35.829Z,13.02
2023-06-09T04:33:09.214Z,10.05
2023-06-09T04:35:42.489Z,11.02
2023-06-09T04:38:14.270Z,13.38
2023-06-09T04:40:46.978Z,16.55
2023-06-09T04:43:19.537Z,11.02
2023-06-09T04:45:56.657Z,10.15
2023-06-09T04:48:30.675Z,10.35
2023-06-09T04:51:02.862Z,10.82
2023-06-09T04:53:35.966Z,9.32
2023-06-09T04:56:09.857Z,10.52
2023-06-09T04:58:42.321Z,10.05
2023-06-09T05:01:14.669Z,9.63
2023-06-09T05:03:46.883Z,10.23
2023-06-09T05:06:18.668Z,10.15
2023-06-09T05:08:52.048Z,8.00
2023-06-09T05:11:24.254Z,9.23
2023-06-09T05:13:56.170Z,9.40
2023-06-09T05:16:28.694Z,8.80
2023-06-09T05:19:00.596Z,11.95
2023-06-09T05:21:32.386Z,12.00
2023-06-09T05:24:04.891Z,7.55
2023-06-09T05:26:37.052Z,11.40
2023-06-09T05:29:08.992Z,10.00
2023-06-09T05:31:40.944Z,6.75
2023-06-09T05:34:13.519Z,8.82
2023-06-09T05:36:45.570Z,8.25
2023-06-09T05:39:17.405Z,10.23
2023-06-09T05:41:49.178Z,12.75
2023-06-09T05:44:21.035Z,9.80
2023-06-09T05:47:02.440Z,11.68
2023-06-09T05:49:35.739Z,12.07
2023-06-09T05:52:07.744Z,11.57
2023-06-09T05:54:39.549Z,10.02
2023-06-09T05:57:11.939Z,9.32
2023-06-09T05:59:44.162Z,8.30
2023-06-09T06:02:17.207Z,7.47
2023-06-09T06:04:50.715Z,9.57
2023-06-09T06:07:27.173Z,7.75
2023-06-09T06:09:58.947Z,8.88
2023-06-09T06:12:31.724Z,9.70
2023-06-09T06:15:03.719Z,8.07
2023-06-09T06:17:35.547Z,9.55
2023-06-09T06:20:07.945Z,6.75
2023-06-09T06:22:40.912Z,8.23
2023-06-09T06:25:14.716Z,8.93
2023-06-09T06:27:48.636Z,7.35
2023-06-09T06:30:20.722Z,9.60
2023-06-09T06:32:54.397Z,8.52
2023-06-09T06:35:28.154Z,9.32
2023-06-09T06:38:00.399Z,6.88
2023-06-09T06:40:32.187Z,9.88
2023-06-09T06:43:03.981Z,8.57
2023-06-09T06:45:35.801Z,7.63
2023-06-09T06:48:07.591Z,5.78
2023-06-09T06:50:41.626Z,7.43
2023-06-09T06:53:13.651Z,10.15
2023-06-09T06:55:46.779Z,7.18
2023-06-09T06:58:18.700Z,8.27
2023-06-09T07:00:50.522Z,7.40
2023-06-09T07:03:26.259Z,7.05
2023-06-09T07:05:58.060Z,15.40
2023-06-09T07:08:29.894Z,8.73
2023-06-09T07:11:01.713Z,7.57
2023-06-09T07:13:33.506Z,6.75
2023-06-09T07:16:05.590Z,9.10
2023-06-09T07:18:37.911Z,5.90
2023-06-09T07:21:10.098Z,7.22
2023-06-09T07:23:41.905Z,8.45
2023-06-09T07:26:13.839Z,7.05
2023-06-09T07:28:45.697Z,5.55
2023-06-09T07:31:17.767Z,7.22
2023-06-09T07:33:49.667Z,4.88
2023-06-09T07:36:21.447Z,5.75
2023-06-09T07:38:53.357Z,7.63
2023-06-09T07:41:25.201Z,5.95
2023-06-09T07:43:58.162Z,6.75
2023-06-09T07:46:31.918Z,8.45
2023-06-09T07:49:04.174Z,6.63
2023-06-09T07:51:39.250Z,5.38
2023-06-09T07:54:11.203Z,7.63
2023-06-09T07:56:44.186Z,5.93
2023-06-09T07:59:17.062Z,7.13
2023-06-09T08:01:49.039Z,8.57
2023-06-09T08:04:20.951Z,5.18
2023-06-09T08:06:53.214Z,7.75
2023-06-09T08:09:26.219Z,9.20
2023-06-09T08:11:58.035Z,6.38
2023-06-09T08:14:29.884Z,6.00
2023-06-09T08:17:01.746Z,6.95
2023-06-09T08:19:33.505Z,6.25
2023-06-09T08:22:05.504Z,5.93
2023-06-09T08:24:37.945Z,9.00
2023-06-09T08:27:09.762Z,5.82
2023-06-09T08:29:41.568Z,7.90
2023-06-09T08:32:13.360Z,9.27
2023-06-09T08:34:45.164Z,5.63
2023-06-09T08:37:16.921Z,5.82
2023-06-09T08:39:49.092Z,9.02
2023-06-09T08:42:27.127Z,6.80
2023-06-09T08:45:08.653Z,7.15
2023-06-09T08:47:45.934Z,8.30
2023-06-09T08:50:26.044Z,7.13
2023-06-09T08:52:58.142Z,9.57
2023-06-09T08:55:30.464Z,6.90
2023-06-09T08:58:02.568Z,5.82
2023-06-09T09:00:34.406Z,5.97
2023-06-09T09:03:07.476Z,6.15
2023-06-09T09:05:39.644Z,6.43
2023-06-09T09:08:12.675Z,4.72
2023-06-09T09:10:46.994Z,4.07
2023-06-09T09:13:19.586Z,5.18
2023-06-09T09:15:52.704Z,5.35
2023-06-09T09:18:24.606Z,6.57
2023-06-09T09:20:56.635Z,5.07
2023-06-09T09:23:34.851Z,5.63
2023-06-09T09:26:06.799Z,5.32
2023-06-09T09:28:40.845Z,4.70
2023-06-09T09:31:12.799Z,6.68
2023-06-09T09:33:51.175Z,4.50
2023-06-09T09:36:23.000Z,6.35
2023-06-09T09:39:02.389Z,7.30
2023-06-09T09:41:34.197Z,9.35
2023-06-09T09:44:07.442Z,4.43
2023-06-09T09:46:40.929Z,9.35
2023-06-09T09:49:23.149Z,7.70
2023-06-09T09:51:58.365Z,4.55
2023-06-09T09:54:30.896Z,7.65
2023-06-09T09:57:04.028Z,10.25
2023-06-09T09:59:36.022Z,9.65
2023-06-09T10:02:17.951Z,5.65
2023-06-09T10:04:51.051Z,6.28
2023-06-09T10:07:23.223Z,8.00
2023-06-09T10:09:55.772Z,5.40
2023-06-09T10:12:28.316Z,7.82
2023-06-09T10:15:00.215Z,9.60
2023-06-09T10:17:33.388Z,6.50
2023-06-09T10:20:06.928Z,5.65
2023-06-09T10:22:39.289Z,9.23
2023-06-09T10:25:13.552Z,5.15
2023-06-09T10:27:46.706Z,6.53
2023-06-09T10:30:22.191Z,5.85
2023-06-09T10:33:12.128Z,5.80
2023-06-09T10:35:47.776Z,6.68
2023-06-09T10:38:29.813Z,4.18
2023-06-09T10:41:40.733Z,7.35
2023-06-09T10:44:42.498Z,7.35
2023-06-09T10:47:44.386Z,6.05
2023-06-09T10:50:26.377Z,7.22
2023-06-09T10:53:00.154Z,8.23
2023-06-09T10:55:36.272Z,9.10
2023-06-09T10:58:36.579Z,5.00
2023-06-09T11:01:08.940Z,7.32
2023-06-09T11:03:40.982Z,6.55
2023-06-09T11:06:12.804Z,6.35
2023-06-09T11:09:10.342Z,5.03
2023-06-09T11:11:50.618Z,6.35
2023-06-09T11:14:52.610Z,8.63
2023-06-09T11:17:35.563Z,6.00
2023-06-09T11:20:07.777Z,7.05
2023-06-09T11:22:42.910Z,8.32
2023-06-09T11:25:20.955Z,8.40
2023-06-09T11:27:58.682Z,8.50
2023-06-09T11:30:32.003Z,12.63
2023-06-09T11:33:05.912Z,8.80
2023-06-09T11:35:42.039Z,15.18
2023-06-09T11:38:21.122Z,9.30
2023-06-09T11:40:53.814Z,6.18
2023-06-09T11:43:27.048Z,10.50
2023-06-09T11:46:05.068Z,9.63
2023-06-09T11:48:36.922Z,7.82
2023-06-09T11:51:08.690Z,8.77
2023-06-09T11:53:48.758Z,7.90
2023-06-09T11:56:21.327Z,6.88
2023-06-09T11:58:56.704Z,6.88
2023-06-09T12:01:32.697Z,8.20
2023-06-09T12:04:05.931Z,14.88
2023-06-09T12:06:38.775Z,19.48
2023-06-09T12:09:21.479Z,10.60
2023-06-09T12:11:54.465Z,11.98
2023-06-09T12:14:26.761Z,11.02
2023-06-09T12:16:58.659Z,11.75
2023-06-09T12:19:31.167Z,8.25
2023-06-09T12:22:04.345Z,7.20
2023-06-09T12:24:36.311Z,8.48
2023-06-09T12:27:15.168Z,9.95
2023-06-09T12:29:47.274Z,18.50
2023-06-09T12:32:24.957Z,55.80
2023-06-09T12:35:01.900Z,63.88
2023-06-09T12:37:39.644Z,25.48
2023-06-09T12:40:13.086Z,16.38
2023-06-09T12:42:49.197Z,13.38
2023-06-09T12:45:22.454Z,7.68
2023-06-09T12:47:54.392Z,8.75
2023-06-09T12:50:26.242Z,8.68
2023-06-09T12:52:57.996Z,7.13
2023-06-09T12:55:29.769Z,7.75
2023-06-09T12:58:01.740Z,8.48
2023-06-09T13:00:34.082Z,7.97
2023-06-09T13:03:09.829Z,9.55
2023-06-09T13:05:41.931Z,6.97
2023-06-09T13:08:13.753Z,10.80
2023-06-09T13:10:45.675Z,10.38
2023-06-09T13:13:17.450Z,9.73
2023-06-09T13:15:49.323Z,10.32
2023-06-09T13:18:21.090Z,10.68
2023-06-09T13:20:53.370Z,12.43
2023-06-09T13:23:25.169Z,14.90
2023-06-09T13:25:56.952Z,14.45
2023-06-09T13:28:28.824Z,9.77
2023-06-09T13:31:01.451Z,10.23
2023-06-09T13:33:33.309Z,11.40
2023-06-09T13:36:05.253Z,9.23
2023-06-09T13:38:39.055Z,11.20
2023-06-09T13:41:14.794Z,12.75
2023-06-09T13:43:47.654Z,8.30
2023-06-09T13:46:19.789Z,8.98
2023-06-09T13:48:51.848Z,6.65
2023-06-09T13:51:23.724Z,11.90
2023-06-09T13:53:55.496Z,10.48
2023-06-09T13:56:27.486Z,8.55
2023-06-09T13:58:59.390Z,8.15
2023-06-09T14:01:34.001Z,10.60
2023-06-09T14:04:06.155Z,6.50
2023-06-09T14:06:39.421Z,7.28
2023-06-09T14:09:13.466Z,8.95
2023-06-09T14:11:45.254Z,12.50
2023-06-09T14:14:18.072Z,9.52
2023-06-09T14:16:50.042Z,12.25
2023-06-09T14:19:22.709Z,10.02
2023-06-09T14:21:54.620Z,9.15
2023-06-09T14:24:26.698Z,8.52
2023-06-09T14:26:59.621Z,10.98
2023-06-09T14:29:33.502Z,9.23
2023-06-09T14:32:06.171Z,7.15
2023-06-09T14:34:38.075Z,7.15
2023-06-09T14:37:09.880Z,6.68
2023-06-09T14:39:41.655Z,8.73
2023-06-09T14:42:13.494Z,7.90
2023-06-09T14:44:45.314Z,9.52
2023-06-09T14:47:17.131Z,9.05
2023-06-09T14:49:48.999Z,6.20
2023-06-09T14:52:20.964Z,6.90
2023-06-09T14:54:55.051Z,6.72
2023-06-09T14:57:26.893Z,5.25
2023-06-09T14:59:58.718Z,8.90
2023-06-09T15:02:30.612Z,6.97
2023-06-09T15:05:04.712Z,5.80
2023-06-09T15:07:36.701Z,8.95
2023-06-09T15:10:08.787Z,5.40
2023-06-09T15:12:40.588Z,7.80
2023-06-09T15:15:13.478Z,5.50
2023-06-09T15:17:45.569Z,8.95
2023-06-09T15:20:18.180Z,7.28
2023-06-09T15:22:50.032Z,7.43
2023-06-09T15:25:28.643Z,7.05
2023-06-09T15:28:02.368Z,7.90
2023-06-09T15:30:35.781Z,12.68
2023-06-09T15:33:09.987Z,8.35
2023-06-09T15:35:53.317Z,8.32
2023-06-09T15:38:26.488Z,6.88
2023-06-09T15:40:59.198Z,7.53
2023-06-09T15:43:38.303Z,9.50
2023-06-09T15:46:10.157Z,10.80
2023-06-09T15:48:42.021Z,6.90
2023-06-09T15:51:13.893Z,12.55
2023-06-09T15:53:45.761Z,9.52
2023-06-09T15:56:17.580Z,9.50
2023-06-09T15:58:49.439Z,9.32
2023-06-09T16:01:21.507Z,9.57
2023-06-09T16:03:53.638Z,7.70
2023-06-09T16:06:25.698Z,8.68
2023-06-09T16:09:04.345Z,7.00
2023-06-09T16:11:39.161Z,9.40
2023-06-09T16:14:13.434Z,6.75
2023-06-09T16:16:46.650Z,6.20
2023-06-09T16:22:04.338Z,5.43
2023-06-09T16:24:36.560Z,6.35
2023-06-09T16:27:09.593Z,4.35
2023-06-09T16:29:43.873Z,4.18
2023-06-09T16:32:15.694Z,4.57
2023-06-09T16:34:49.975Z,5.10
2023-06-09T16:37:22.188Z,4.43
2023-06-09T16:39:54.605Z,6.55
2023-06-09T16:42:26.402Z,3.45
2023-06-09T16:45:03.061Z,6.00
2023-06-09T16:47:39.142Z,4.57
2023-06-09T16:50:11.964Z,7.63
2023-06-09T16:52:43.884Z,7.10
2023-06-09T16:55:16.905Z,8.23
2023-06-09T16:57:49.032Z,5.20
2023-06-09T17:00:23.560Z,5.57
2023-06-09T17:02:56.731Z,5.75
2023-06-09T17:05:30.845Z,6.53
2023-06-09T17:08:05.299Z,5.50
2023-06-09T17:10:37.602Z,6.60
2023-06-09T17:13:10.163Z,5.57
2023-06-09T17:15:41.981Z,6.95
2023-06-09T17:18:14.399Z,6.07
2023-06-09T17:20:47.588Z,7.18
2023-06-09T17:23:21.643Z,8.25
2023-06-09T17:25:53.435Z,7.85
2023-06-09T17:28:25.283Z,5.18
2023-06-09T17:30:57.594Z,7.60
2023-06-09T17:33:34.341Z,11.55
2023-06-09T17:36:06.510Z,16.05
2023-06-09T17:38:38.729Z,10.27
2023-06-09T17:41:10.777Z,8.45
2023-06-09T17:43:42.909Z,7.13
2023-06-09T17:46:15.041Z,7.78
2023-06-09T17:48:46.892Z,9.20
2023-06-09T17:51:20.557Z,8.68
2023-06-09T17:53:54.602Z,6.80
2023-06-09T17:56:28.058Z,6.75
2023-06-09T17:59:04.749Z,8.48
2023-06-09T18:01:37.406Z,7.72
2023-06-09T18:04:10.076Z,7.53
2023-06-09T18:06:46.952Z,6.63
2023-06-09T18:09:19.126Z,7.45
2023-06-09T18:11:51.816Z,6.95
2023-06-09T18:14:23.692Z,9.07
2023-06-09T18:16:55.511Z,7.40
2023-06-09T18:19:27.568Z,9.38
2023-06-09T18:21:59.391Z,8.18
2023-06-09T18:24:33.053Z,6.88
2023-06-09T18:27:05.134Z,6.45
2023-06-09T18:29:37.006Z,7.03
2023-06-09T18:32:10.376Z,6.97
2023-06-09T18:34:42.427Z,8.00
2023-06-09T18:37:14.251Z,9.65
2023-06-09T18:39:46.403Z,8.88
2023-06-09T18:42:18.823Z,9.05
2023-06-09T18:44:50.705Z,8.57
2023-06-09T18:47:23.967Z,9.95
2023-06-09T18:49:55.966Z,11.10
2023-06-09T18:52:32.067Z,10.57
2023-06-09T18:55:04.183Z,12.27
2023-06-09T18:57:38.485Z,10.60
2023-06-09T19:00:12.482Z,11.60
2023-06-09T19:02:45.814Z,13.45
2023-06-09T19:05:19.505Z,13.30
2023-06-09T19:07:51.363Z,13.07
2023-06-09T19:10:25.741Z,13.95
2023-06-09T19:12:57.544Z,13.95
2023-06-09T19:15:29.403Z,14.10
2023-06-09T19:18:01.989Z,14.45
2023-06-09T19:20:37.124Z,15.85
2023-06-09T19:23:09.244Z,18.05
2023-06-09T19:25:41.232Z,13.00
2023-06-09T19:28:13.094Z,12.73
2023-06-09T19:30:45.074Z,12.63
2023-06-09T19:33:17.469Z,14.18
2023-06-09T19:35:49.267Z,9.68
2023-06-09T19:38:21.336Z,12.20
2023-06-09T19:40:55.431Z,12.45
2023-06-09T19:43:28.818Z,13.07
2023-06-09T19:46:01.642Z,15.90
2023-06-09T19:48:34.351Z,14.27
2023-06-09T19:51:06.266Z,19.02
2023-06-09T19:53:38.083Z,14.60
2023-06-09T19:56:12.814Z,14.07
2023-06-09T19:58:44.629Z,13.00
2023-06-09T20:01:16.495Z,12.05
2023-06-09T20:03:48.301Z,11.98
2023-06-09T20:06:20.659Z,13.43
2023-06-09T20:08:52.457Z,11.05
2023-06-09T20:11:25.235Z,11.90
2023-06-09T20:13:57.165Z,10.55
2023-06-09T20:16:34.503Z,16.33
2023-06-09T20:19:08.019Z,11.20
2023-06-09T20:21:39.866Z,11.32
2023-06-09T20:24:12.026Z,13.85
2023-06-09T20:26:45.295Z,14.95
2023-06-09T20:29:18.602Z,13.60
2023-06-09T20:31:50.547Z,12.38
2023-06-09T20:34:22.622Z,10.80
2023-06-09T20:36:54.823Z,13.38
2023-06-09T20:39:26.719Z,11.35
2023-06-09T20:41:58.490Z,9.88
2023-06-09T20:44:30.426Z,12.93
2023-06-09T20:47:03.882Z,12.45
2023-06-09T20:49:39.836Z,14.63
2023-06-09T20:52:12.550Z,15.30
2023-06-09T20:54:44.668Z,14.38
2023-06-09T20:57:16.761Z,12.57
2023-06-09T20:59:48.568Z,12.90
2023-06-09T21:02:21.395Z,14.65
2023-06-09T21:04:53.267Z,13.13
2023-06-09T21:07:25.066Z,12.55
2023-06-09T21:09:56.850Z,11.95
2023-06-09T21:12:28.651Z,13.57
2023-06-09T21:15:00.478Z,13.30
2023-06-09T21:17:32.721Z,12.55
2023-06-09T21:20:13.401Z,13.35
2023-06-09T21:25:17.648Z,12.45
2023-06-09T21:27:49.462Z,12.43
2023-06-09T21:30:22.092Z,13.90
2023-06-09T21:32:54.390Z,12.55
2023-06-09T21:35:26.647Z,15.20
2023-06-09T21:37:58.598Z,15.38
2023-06-09T21:40:30.701Z,14.48
2023-06-09T21:43:02.906Z,14.30
2023-06-09T21:45:35.233Z,13.18
2023-06-09T21:48:07.179Z,14.93
2023-06-09T21:50:38.994Z,17.13
2023-06-09T21:53:11.744Z,13.32
2023-06-09T21:55:45.620Z,15.13
2023-06-09T21:58:17.537Z,12.82
2023-06-09T22:00:49.485Z,12.90
2023-06-09T22:03:21.378Z,12.77
2023-06-09T22:05:53.175Z,13.10
2023-06-09T22:08:25.247Z,14.75
2023-06-09T22:10:58.589Z,15.32
2023-06-09T22:13:31.636Z,15.23
2023-06-09T22:16:03.874Z,12.98
2023-06-09T22:18:35.871Z,17.23
2023-06-09T22:21:08.148Z,13.13
2023-06-09T22:23:40.382Z,12.73
2023-06-09T22:26:12.532Z,13.20
2023-06-09T22:28:44.612Z,12.35
2023-06-09T22:31:16.877Z,14.23
2023-06-09T22:33:48.708Z,16.35
2023-06-09T22:36:24.377Z,14.05
2023-06-09T22:38:56.837Z,14.63
2023-06-09T22:41:28.648Z,14.73
2023-06-09T22:44:02.409Z,14.23
2023-06-09T22:46:35.146Z,13.85
2023-06-09T22:49:07.652Z,13.80
2023-06-09T22:51:39.421Z,10.23
2023-06-09T22:54:11.369Z,10.60
2023-06-09T22:56:44.795Z,10.05
2023-06-09T22:59:16.971Z,9.10
2023-06-09T23:01:48.791Z,10.15
2023-06-09T23:04:20.813Z,9.95
2023-06-09T23:06:53.054Z,10.60
2023-06-09T23:09:24.922Z,11.27
2023-06-09T23:11:59.187Z,7.97
2023-06-09T23:14:31.211Z,7.95
2023-06-09T23:17:03.432Z,11.25
2023-06-09T23:19:35.865Z,10.07
2023-06-09T23:22:14.499Z,8.73
2023-06-09T23:24:46.503Z,8.38
2023-06-09T23:27:18.294Z,8.75
2023-06-09T23:29:51.153Z,8.65
2023-06-09T23:32:23.131Z,8.93
2023-06-09T23:34:55.161Z,10.10
2023-06-09T23:37:29.425Z,9.10
2023-06-09T23:40:01.313Z,10.23
2023-06-09T23:42:33.132Z,11.38
2023-06-09T23:45:05.407Z,9.07
2023-06-09T23:47:37.672Z,9.88
2023-06-09T23:50:11.258Z,9.73
2023-06-09T23:52:43.193Z,7.13
2023-06-09T23:55:15.057Z,10.82
2023-06-09T23:57:46.871Z,7.57
